Terminal Aerodrome Forecast
Issued by NWS

Home | Current Version | Previous Version | Text Only | Print | Product List | Glossary On
Versions: 1 2 3 4 5 6 7 8 9 10 11 12 13 14 15 16 17 18 19 20 21 22 23 24 25 26 27 28
000
FTAK31 PAFA 280821 AAA
TAFAUN
TAF AMD
PAUN 280821Z 2808/2906 VRB03KT P6SM VCSH OVC003
     FM281100 VRB04KT 6SM -SHRA SCT015 BKN025 OVC035
     FM281400 VRB04KT 6SM -SHRA BR BKN015 BKN025 OVC035=

USA.gov is the U.S. government's official web portal to all federal, state and local government web resources and services.